Time;durP1;ratioP1;P1;durP2;ratioP2;P2;SDS_P1;SDS_P2;PMS_P1;PMS_P2;Temp;Humidity;BMP_temperature;BMP_pressure;BME280_temperature;BME280_humidity;BME280_pressure;Samples;Min_cycle;Max_cycle;Signal;HPM_P1;HPM_P2
2023/06/19 00:02:18;;;;;;;9.05;5.70;;;;;;;23.43;52.22;100664.19;5036282;28;20441;-65
2023/06/19 00:04:46;;;;;;;8.10;5.25;;;;;;;23.44;54.54;100660.25;5035325;28;20049;-65
2023/06/19 00:07:14;;;;;;;7.88;5.35;;;;;;;23.41;55.85;100667.34;5026956;28;20514;-65
2023/06/19 00:09:42;;;;;;;8.88;4.97;;;;;;;23.39;55.47;100678.81;5026295;28;20516;-64
2023/06/19 00:12:11;;;;;;;9.80;5.68;;;;;;;23.38;56.18;100674.44;5034467;28;20470;-65
2023/06/19 00:14:39;;;;;;;8.90;5.55;;;;;;;23.38;55.91;100680.00;5033744;28;20144;-65
2023/06/19 00:17:07;;;;;;;8.48;5.28;;;;;;;23.35;57.59;100679.88;5034031;28;20069;-65
2023/06/19 00:19:36;;;;;;;7.60;4.80;;;;;;;23.36;54.71;100682.31;5034876;28;20123;-65
2023/06/19 00:22:05;;;;;;;10.90;6.20;;;;;;;23.34;57.43;100689.41;5034250;28;20049;-65
2023/06/19 00:24:34;;;;;;;8.80;5.80;;;;;;;23.28;58.56;100694.44;5028878;28;20473;-64
2023/06/19 00:27:02;;;;;;;10.63;6.38;;;;;;;23.24;58.33;100701.84;5030463;28;20060;-65
2023/06/19 00:29:31;;;;;;;9.75;5.40;;;;;;;23.25;57.91;100700.69;5030362;28;20041;-64
2023/06/19 00:31:59;;;;;;;11.55;6.18;;;;;;;23.25;57.97;100695.13;5014748;28;20497;-64
2023/06/19 00:34:29;;;;;;;9.32;5.45;;;;;;;23.22;58.69;100704.19;5002221;28;20116;-64
2023/06/19 00:36:58;;;;;;;11.65;5.75;;;;;;;23.19;59.08;100710.47;5021133;28;20030;-65
2023/06/19 00:39:26;;;;;;;9.65;5.43;;;;;;;23.18;58.28;100720.75;5035497;28;20053;-65
2023/06/19 00:41:56;;;;;;;10.43;5.90;;;;;;;23.16;59.13;100725.06;5016332;28;20084;-65
2023/06/19 00:44:24;;;;;;;11.77;5.57;;;;;;;23.16;58.86;100733.41;5031576;28;20049;-66
2023/06/19 00:46:59;;;;;;;11.93;6.18;;;;;;;23.17;58.42;100730.28;5034623;28;20048;-66
2023/06/19 00:49:30;;;;;;;9.85;6.05;;;;;;;23.15;59.13;100731.78;5033958;28;20049;-65
2023/06/19 00:51:58;;;;;;;8.85;5.55;;;;;;;23.13;59.55;100728.56;5019759;28;20046;-65
2023/06/19 00:54:26;;;;;;;10.45;5.90;;;;;;;23.13;58.68;100728.56;4997884;28;20069;-65
2023/06/19 00:56:53;;;;;;;9.40;5.30;;;;;;;23.12;58.67;100732.50;5015393;28;20489;-65
2023/06/19 00:59:22;;;;;;;11.50;6.65;;;;;;;23.09;59.93;100735.97;5034548;28;20128;-64
2023/06/19 01:01:50;;;;;;;8.35;5.70;;;;;;;23.07;60.05;100730.78;5023599;28;20478;-64
2023/06/19 01:04:19;;;;;;;8.65;5.45;;;;;;;23.08;58.26;100735.19;5034336;28;20053;-64
2023/06/19 01:06:58;;;;;;;9.90;5.82;;;;;;;23.09;56.63;100733.19;5034504;28;20069;-64
2023/06/19 01:09:30;;;;;;;8.30;5.75;;;;;;;23.06;59.00;100740.28;5034179;28;20054;-65
2023/06/19 01:12:06;;;;;;;8.18;5.40;;;;;;;23.03;58.86;100746.56;5018513;28;20054;-65
2023/06/19 01:14:44;;;;;;;11.40;5.82;;;;;;;23.01;59.34;100742.50;4996963;28;20070;-64
2023/06/19 01:17:12;;;;;;;8.30;5.18;;;;;;;23.01;57.26;100746.09;5017259;28;20045;-65
2023/06/19 01:19:40;;;;;;;8.02;5.20;;;;;;;22.96;57.06;100743.53;5016949;28;20124;-64
2023/06/19 01:22:08;;;;;;;8.27;5.60;;;;;;;22.94;59.69;100743.88;5037673;28;20128;-64
2023/06/19 01:24:35;;;;;;;9.10;5.85;;;;;;;22.97;56.49;100743.19;5033794;28;20505;-65
2023/06/19 01:27:04;;;;;;;9.07;5.63;;;;;;;23.03;57.51;100746.56;5049864;28;20099;-64
2023/06/19 01:29:31;;;;;;;8.32;5.28;;;;;;;22.99;59.24;100745.63;5032412;28;20128;-64
2023/06/19 01:32:06;;;;;;;8.35;5.68;;;;;;;22.98;58.38;100749.59;5014716;28;20104;-65
2023/06/19 01:34:34;;;;;;;8.70;5.60;;;;;;;22.93;59.15;100745.06;4997469;28;20044;-65
2023/06/19 01:37:05;;;;;;;9.45;5.60;;;;;;;22.95;59.78;100751.06;5013377;28;20449;-64
2023/06/19 01:39:33;;;;;;;9.35;5.82;;;;;;;22.90;59.66;100756.91;4997246;28;20046;-66
2023/06/19 01:42:09;;;;;;;7.95;4.97;;;;;;;22.86;60.91;100758.75;5028826;28;20042;-65
2023/06/19 01:44:37;;;;;;;10.93;4.95;;;;;;;22.81;62.53;100761.78;5011678;28;20476;-64
2023/06/19 01:47:12;;;;;;;7.90;4.72;;;;;;;22.75;62.33;100764.00;5014345;28;20211;-65
2023/06/19 01:49:42;;;;;;;8.35;5.00;;;;;;;22.77;58.62;100763.63;5015500;28;20415;-65
2023/06/19 01:52:10;;;;;;;10.32;5.55;;;;;;;22.73;63.27;100765.53;5000383;28;20076;-63
2023/06/19 01:54:37;;;;;;;7.68;5.03;;;;;;;22.65;64.85;100770.03;5015519;28;20155;-65
2023/06/19 01:57:05;;;;;;;6.55;4.25;;;;;;;22.61;59.74;100768.31;5033554;28;20159;-66
2023/06/19 01:59:33;;;;;;;7.07;4.90;;;;;;;22.65;60.93;100781.16;5049509;28;20077;-65
2023/06/19 02:02:03;;;;;;;7.78;5.05;;;;;;;22.66;64.73;100793.91;5016657;28;20076;-63
2023/06/19 02:04:31;;;;;;;9.90;5.15;;;;;;;22.61;64.55;100787.75;5033106;28;20073;-64
2023/06/19 02:06:59;;;;;;;7.43;5.00;;;;;;;22.60;65.12;100783.38;5033208;28;20089;-65
2023/06/19 02:09:27;;;;;;;7.97;4.60;;;;;;;22.53;66.69;100781.97;5061212;28;20129;-65
2023/06/19 02:11:56;;;;;;;7.88;4.90;;;;;;;22.37;68.20;100781.09;5012450;28;20073;-65
2023/06/19 02:14:27;;;;;;;8.50;5.00;;;;;;;22.29;69.32;100787.56;5012737;28;20096;-66
2023/06/19 02:16:54;;;;;;;7.47;4.82;;;;;;;22.28;68.01;100781.22;5045331;28;20050;-65
2023/06/19 02:19:22;;;;;;;6.88;4.53;;;;;;;22.26;68.63;100789.09;5031768;28;20065;-64
2023/06/19 02:21:50;;;;;;;6.47;4.20;;;;;;;22.24;68.00;100785.03;5048078;28;20486;-65
2023/06/19 02:24:17;;;;;;;7.15;4.43;;;;;;;22.23;69.69;100791.75;5033457;28;20057;-65
2023/06/19 02:26:45;;;;;;;6.78;4.22;;;;;;;22.26;69.48;100799.38;5031024;28;20041;-65
2023/06/19 02:29:13;;;;;;;5.35;3.83;;;;;;;22.18;67.76;100800.28;5032342;28;20037;-65
2023/06/19 02:31:42;;;;;;;8.77;4.65;;;;;;;22.24;68.79;100799.72;5047696;28;20057;-66
2023/06/19 02:34:10;;;;;;;6.63;4.05;;;;;;;22.24;69.61;100798.91;5044626;28;20045;-60
2023/06/19 02:36:38;;;;;;;6.85;4.13;;;;;;;22.25;69.49;100800.56;5048841;28;20049;-64
2023/06/19 02:39:08;;;;;;;9.55;4.50;;;;;;;22.23;70.01;100802.88;5065349;28;20053;-60
2023/06/19 02:41:38;;;;;;;7.75;4.20;;;;;;;22.22;70.65;100804.81;5038784;28;20054;-64
2023/06/19 02:44:05;;;;;;;7.85;3.92;;;;;;;22.10;72.81;100800.06;5038860;28;20105;-61
2023/06/19 02:46:33;;;;;;;6.45;3.80;;;;;;;22.03;73.42;100799.84;5027120;28;20046;-61
2023/06/19 02:49:01;;;;;;;6.85;3.65;;;;;;;22.08;70.86;100791.28;5024734;28;20045;-65
2023/06/19 02:51:29;;;;;;;5.82;3.70;;;;;;;22.09;72.98;100808.72;5032995;28;20477;-65
2023/06/19 02:53:57;;;;;;;5.32;3.65;;;;;;;22.17;69.24;100795.88;5032655;28;20049;-65
2023/06/19 02:56:26;;;;;;;6.25;4.28;;;;;;;22.18;68.97;100795.56;5031178;28;20456;-66
2023/06/19 02:58:53;;;;;;;6.18;3.65;;;;;;;22.18;70.37;100797.53;5011952;28;20084;-66
2023/06/19 03:01:21;;;;;;;5.95;3.70;;;;;;;22.15;71.50;100803.75;5031589;28;20482;-65
2023/06/19 03:03:49;;;;;;;5.70;3.80;;;;;;;22.13;71.08;100804.91;5031474;28;20060;-63
2023/06/19 03:06:18;;;;;;;5.30;3.60;;;;;;;22.10;70.44;100811.16;5032771;28;20124;-64
2023/06/19 03:08:47;;;;;;;7.05;3.65;;;;;;;22.11;70.83;100817.53;4988946;28;1092939;-64
2023/06/19 03:11:14;;;;;;;5.95;3.88;;;;;;;22.10;69.17;100818.66;5047925;28;20080;-65
2023/06/19 03:13:53;;;;;;;5.95;3.47;;;;;;;22.08;70.11;100823.75;5032847;28;20521;-65
2023/06/19 03:16:21;;;;;;;6.18;3.95;;;;;;;22.06;71.10;100821.31;5052629;28;20046;-65
2023/06/19 03:18:50;;;;;;;6.40;3.53;;;;;;;22.04;70.95;100822.84;5030920;28;20053;-64
2023/06/19 03:21:22;;;;;;;5.60;3.58;;;;;;;22.07;70.46;100827.69;5045483;28;20046;-64
2023/06/19 03:23:51;;;;;;;5.68;3.72;;;;;;;22.08;67.79;100826.50;5031162;28;20065;-65
2023/06/19 03:26:21;;;;;;;8.57;3.95;;;;;;;22.06;71.23;100837.19;5032032;28;20046;-65
2023/06/19 03:28:49;;;;;;;7.40;3.40;;;;;;;22.06;69.90;100831.63;5031478;28;20041;-65
2023/06/19 03:31:17;;;;;;;5.97;3.90;;;;;;;22.03;72.67;100827.59;4999301;28;20099;-65
2023/06/19 03:33:44;;;;;;;6.68;3.22;;;;;;;22.01;72.02;100834.63;5013525;28;20417;-65
2023/06/19 03:36:12;;;;;;;5.35;3.60;;;;;;;22.03;70.01;100833.13;5064060;28;20104;-65
2023/06/19 03:39:03;;;;;;;5.85;3.35;;;;;;;22.00;72.35;100836.56;5017057;28;20394;-65
2023/06/19 03:41:31;;;;;;;5.38;3.30;;;;;;;21.99;68.35;100842.50;5033001;28;20046;-65
2023/06/19 03:43:59;;;;;;;8.23;3.40;;;;;;;22.00;71.63;100839.34;5052118;28;20520;-65
2023/06/19 03:46:28;;;;;;;6.70;3.50;;;;;;;21.94;74.08;100853.81;5032959;28;20034;-64
2023/06/19 03:48:57;;;;;;;6.85;3.28;;;;;;;21.89;72.48;100850.09;5015224;28;20178;-65
2023/06/19 03:51:25;;;;;;;6.45;3.38;;;;;;;21.87;73.89;100851.59;5022617;28;20409;-64
2023/06/19 03:53:53;;;;;;;6.38;3.55;;;;;;;21.84;73.92;100855.03;5035687;28;20401;-65
2023/06/19 03:56:20;;;;;;;5.72;3.30;;;;;;;21.82;74.34;100860.94;5019044;28;20045;-64
2023/06/19 03:58:48;;;;;;;5.55;3.40;;;;;;;21.90;73.59;100868.34;5018020;28;20142;-64
2023/06/19 04:01:16;;;;;;;7.13;3.80;;;;;;;21.93;73.52;100872.41;5033859;28;20509;-64
2023/06/19 04:03:44;;;;;;;7.68;3.42;;;;;;;21.91;72.93;100869.16;5016834;28;20095;-64
2023/06/19 04:06:11;;;;;;;6.38;3.15;;;;;;;21.94;73.12;100867.69;5028511;28;20038;-65
2023/06/19 04:08:40;;;;;;;5.68;3.55;;;;;;;21.90;73.14;100873.91;4997083;28;20506;-65
2023/06/19 04:11:11;;;;;;;5.93;3.70;;;;;;;21.90;73.85;100873.91;5014211;28;20137;-65
2023/06/19 04:13:39;;;;;;;6.20;3.33;;;;;;;21.90;74.58;100878.63;5034126;28;20061;-63
2023/06/19 04:16:07;;;;;;;5.10;3.38;;;;;;;21.94;72.07;100884.31;5019394;28;20052;-65
2023/06/19 04:18:35;;;;;;;5.45;3.50;;;;;;;21.97;74.61;100881.66;5035132;28;20128;-64
2023/06/19 04:21:04;;;;;;;8.30;3.65;;;;;;;21.97;74.23;100878.09;5034903;28;20049;-65
2023/06/19 04:23:32;;;;;;;7.90;3.83;;;;;;;21.93;73.51;100875.19;5051031;28;20494;-65
2023/06/19 04:26:00;;;;;;;5.47;3.70;;;;;;;21.99;75.25;100886.88;5037893;28;20128;-65
2023/06/19 04:28:28;;;;;;;9.35;4.32;;;;;;;22.06;74.80;100889.91;5034493;28;20068;-64
2023/06/19 04:31:00;;;;;;;7.57;4.40;;;;;;;21.95;77.59;100903.38;5034702;28;20159;-64
2023/06/19 04:33:29;;;;;;;3.70;2.85;;;;;;;21.84;75.86;100897.47;5034949;28;20054;-64
2023/06/19 04:35:57;;;;;;;7.72;4.20;;;;;;;21.87;77.71;100901.53;5032975;28;20418;-64
2023/06/19 04:38:25;;;;;;;8.70;3.97;;;;;;;21.84;79.10;100902.19;5034045;28;20072;-65
2023/06/19 04:40:52;;;;;;;3.75;2.88;;;;;;;21.88;74.42;100897.59;5034492;28;20048;-65
2023/06/19 04:43:24;;;;;;;5.57;3.45;;;;;;;21.85;77.57;100909.38;5035187;28;20045;-65
2023/06/19 04:45:52;;;;;;;5.18;3.15;;;;;;;21.89;74.88;100908.34;5031727;28;20053;-64
2023/06/19 04:48:25;;;;;;;8.20;4.05;;;;;;;21.85;79.59;100915.72;5015148;28;20046;-64
2023/06/19 04:50:55;;;;;;;6.80;3.50;;;;;;;21.77;77.90;100913.88;5014404;28;20084;-64
2023/06/19 04:53:23;;;;;;;10.20;4.22;;;;;;;21.76;80.48;100916.97;5013746;28;20076;-64
2023/06/19 04:55:54;;;;;;;5.40;3.63;;;;;;;21.80;76.16;100915.16;5026403;28;20105;-65
2023/06/19 04:58:29;;;;;;;7.97;4.57;;;;;;;21.80;80.80;100917.91;5034337;28;20045;-65
2023/06/19 05:00:57;;;;;;;6.53;4.20;;;;;;;21.70;82.42;100919.97;5033924;28;20049;-64
2023/06/19 05:03:25;;;;;;;8.27;3.78;;;;;;;21.70;79.52;100925.50;4332899;28;10000398;-65
2023/06/19 05:05:52;;;;;;;7.22;4.38;;;;;;;21.81;80.55;100922.31;5019896;28;20120;-67
2023/06/19 05:08:20;;;;;;;7.57;3.80;;;;;;;21.73;83.03;100918.47;5030640;28;20084;-66
2023/06/19 05:10:48;;;;;;;11.75;4.43;;;;;;;21.63;84.64;100922.47;5029415;28;20053;-65
2023/06/19 05:13:18;;;;;;;8.02;4.15;;;;;;;21.62;83.90;100920.88;5031241;28;20051;-66
2023/06/19 05:15:45;;;;;;;8.13;3.75;;;;;;;21.66;81.75;100924.56;5026801;28;20057;-66
2023/06/19 05:18:13;;;;;;;6.65;4.03;;;;;;;21.73;82.60;100928.75;5029615;28;20792;-66
2023/06/19 05:20:42;;;;;;;10.55;4.15;;;;;;;21.75;82.15;100926.47;5030073;28;20048;-66
2023/06/19 05:23:10;;;;;;;12.18;4.55;;;;;;;21.80;82.59;100923.47;5031216;28;20045;-66
2023/06/19 05:25:37;;;;;;;6.85;4.03;;;;;;;21.78;82.76;100923.00;5029918;28;20115;-68
2023/06/19 05:28:05;;;;;;;8.10;4.25;;;;;;;21.86;81.38;100928.47;5032015;28;20049;-67
2023/06/19 05:30:34;;;;;;;10.50;4.60;;;;;;;21.82;83.40;100929.50;5030145;28;20550;-66
2023/06/19 05:33:02;;;;;;;9.05;4.40;;;;;;;21.80;79.99;100929.00;5029781;28;20119;-65
2023/06/19 05:35:30;;;;;;;9.50;4.32;;;;;;;21.78;83.84;100932.13;5029478;28;20149;-66
2023/06/19 05:37:58;;;;;;;7.40;4.35;;;;;;;21.74;83.59;100936.72;5030572;28;20489;-66
2023/06/19 05:40:26;;;;;;;10.02;4.72;;;;;;;21.71;85.34;100937.41;5028169;28;20053;-67
2023/06/19 05:42:55;;;;;;;8.27;3.72;;;;;;;21.69;82.50;100928.63;5030472;28;20503;-66
2023/06/19 05:45:23;;;;;;;5.93;4.10;;;;;;;21.74;85.03;100935.91;5021815;28;20058;-66
2023/06/19 05:47:50;;;;;;;6.70;4.28;;;;;;;21.77;83.17;100938.00;5009636;28;20111;-66
2023/06/19 05:50:18;;;;;;;7.85;4.40;;;;;;;21.79;82.38;100949.56;5010740;28;20521;-66
2023/06/19 05:52:46;;;;;;;8.68;4.35;;;;;;;21.82;82.39;100943.34;5017898;28;20037;-66
2023/06/19 05:55:13;;;;;;;8.18;4.15;;;;;;;21.81;81.81;100948.06;5036505;28;20056;-65
2023/06/19 05:57:42;;;;;;;5.93;3.80;;;;;;;21.88;80.47;100941.97;5029454;28;20059;-66
2023/06/19 06:00:16;;;;;;;11.02;4.53;;;;;;;21.86;82.77;100949.81;5028303;28;20128;-66
2023/06/19 06:02:43;;;;;;;10.50;5.20;;;;;;;21.79;84.97;100955.94;5033031;28;20109;-66
2023/06/19 06:05:11;;;;;;;7.78;4.45;;;;;;;21.76;84.75;100961.34;5022888;28;20115;-66
2023/06/19 06:07:39;;;;;;;9.70;4.78;;;;;;;21.64;85.93;100965.69;5013732;28;20050;-66
2023/06/19 06:10:09;;;;;;;10.85;4.90;;;;;;;21.61;87.08;100966.38;5028769;28;20458;-65
2023/06/19 06:12:37;;;;;;;8.38;5.57;;;;;;;21.57;87.21;100965.41;5015648;28;20070;-66
2023/06/19 06:15:07;;;;;;;13.10;5.30;;;;;;;21.51;88.46;100969.56;5016788;28;20046;-66
2023/06/19 06:17:35;;;;;;;9.30;5.30;;;;;;;21.49;88.92;100969.88;5032642;28;20045;-66
2023/06/19 06:20:09;;;;;;;10.45;5.70;;;;;;;21.54;89.31;100977.19;5032747;28;20048;-66
2023/06/19 06:22:37;;;;;;;8.52;4.65;;;;;;;21.58;87.97;100971.81;5031780;28;20490;-66
2023/06/19 06:25:05;;;;;;;12.43;4.72;;;;;;;21.62;88.36;100983.81;5021152;28;20049;-67
2023/06/19 06:27:33;;;;;;;10.20;5.30;;;;;;;21.67;87.69;100981.66;5029176;28;20486;-66
2023/06/19 06:30:00;;;;;;;9.02;5.60;;;;;;;21.64;87.97;100993.41;5012459;28;20073;-67
2023/06/19 06:32:31;;;;;;;9.90;5.85;;;;;;;21.59;87.73;100996.41;5014433;28;20112;-68
2023/06/19 06:34:59;;;;;;;9.60;6.10;;;;;;;21.59;86.26;101007.50;5017962;28;20457;-65
2023/06/19 06:37:26;;;;;;;9.63;5.60;;;;;;;21.81;83.59;100995.22;5000038;28;20058;-66
2023/06/19 06:39:54;;;;;;;8.85;4.90;;;;;;;21.86;82.03;100994.22;5032122;28;20046;-66
2023/06/19 06:42:23;;;;;;;17.00;6.03;;;;;;;21.89;79.79;100993.56;5014600;28;20077;-65
2023/06/19 06:44:50;;;;;;;16.83;6.85;;;;;;;21.85;80.35;100995.38;5012965;28;20390;-66
2023/06/19 06:47:18;;;;;;;12.43;6.53;;;;;;;21.85;80.11;101003.69;5018680;28;20069;-65
2023/06/19 06:49:46;;;;;;;17.02;8.32;;;;;;;21.79;80.30;101010.59;5015077;28;20077;-66
2023/06/19 06:52:13;;;;;;;16.27;7.53;;;;;;;21.75;80.20;101018.00;5027300;28;20045;-63
2023/06/19 06:54:41;;;;;;;18.20;7.28;;;;;;;21.77;79.84;101024.81;5026888;28;20085;-63
2023/06/19 06:57:09;;;;;;;13.85;7.43;;;;;;;21.86;78.69;101027.50;5029078;28;20070;-65
2023/06/19 06:59:36;;;;;;;15.68;6.90;;;;;;;21.82;78.39;101021.03;5048114;28;20057;-67
2023/06/19 07:02:04;;;;;;;11.88;8.50;;;;;;;21.78;78.39;101033.94;5077412;28;20140;-65
2023/06/19 07:04:32;;;;;;;10.90;7.50;;;;;;;21.73;78.26;101023.06;5038671;28;20049;-65
2023/06/19 07:07:01;;;;;;;11.65;7.68;;;;;;;21.68;78.44;101035.97;5030003;28;20062;-60
2023/06/19 07:09:29;;;;;;;12.10;6.38;;;;;;;21.69;78.45;101029.28;5041849;28;20061;-62
2023/06/19 07:11:57;;;;;;;9.95;6.78;;;;;;;21.72;78.18;101032.50;5044817;28;20457;-65
2023/06/19 07:14:24;;;;;;;13.18;7.72;;;;;;;21.76;77.54;101034.28;5040641;28;20041;-66
2023/06/19 07:16:52;;;;;;;10.57;6.53;;;;;;;21.86;76.06;101044.97;5045838;28;20064;-67
2023/06/19 07:19:20;;;;;;;9.52;6.97;;;;;;;21.86;76.84;101044.16;5036136;28;20052;-67
2023/06/19 07:21:50;;;;;;;13.88;8.45;;;;;;;21.81;76.93;101047.13;5020642;28;20144;-66
2023/06/19 07:24:18;;;;;;;10.45;7.93;;;;;;;21.79;77.33;101043.88;5035237;28;20099;-67
2023/06/19 07:26:49;;;;;;;12.70;8.45;;;;;;;21.79;78.02;101047.47;5016030;28;20053;-67
2023/06/19 07:29:16;;;;;;;12.68;8.13;;;;;;;21.77;78.02;101051.72;5032509;28;20060;-66
2023/06/19 07:31:44;;;;;;;10.65;7.50;;;;;;;21.72;77.96;101054.69;5016378;28;20108;-66
2023/06/19 07:34:12;;;;;;;10.23;7.35;;;;;;;21.67;77.06;101055.72;5028670;28;20049;-67
2023/06/19 07:36:42;;;;;;;11.65;7.82;;;;;;;21.68;77.48;101065.66;5020367;28;20041;-66
2023/06/19 07:39:10;;;;;;;12.52;9.10;;;;;;;21.64;78.32;101071.06;5019065;28;20132;-66
2023/06/19 07:41:37;;;;;;;13.85;8.23;;;;;;;21.64;78.20;101068.28;5019002;28;20103;-67
2023/06/19 07:44:05;;;;;;;10.10;7.57;;;;;;;21.75;76.52;101071.50;5034398;28;20128;-67
2023/06/19 07:46:33;;;;;;;11.05;8.38;;;;;;;21.74;76.51;101074.59;5036646;28;20099;-67
2023/06/19 07:49:01;;;;;;;11.13;6.97;;;;;;;21.76;76.76;101080.63;5036622;28;20351;-67
2023/06/19 07:51:28;;;;;;;12.63;8.75;;;;;;;21.75;77.40;101084.56;5035283;28;20490;-67
2023/06/19 07:53:56;;;;;;;8.75;5.63;;;;;;;21.81;76.76;101081.22;5019066;28;20049;-67
2023/06/19 07:56:24;;;;;;;13.27;7.40;;;;;;;21.88;76.36;101075.94;5034995;28;20050;-66
2023/06/19 07:58:52;;;;;;;12.15;6.82;;;;;;;21.94;76.70;101062.69;5036307;28;20068;-67
2023/06/19 08:01:19;;;;;;;8.50;6.20;;;;;;;22.02;75.58;101075.66;5035327;28;20147;-67
2023/06/19 08:03:47;;;;;;;11.20;7.90;;;;;;;22.10;73.71;101080.34;5034798;28;20068;-66
2023/06/19 08:06:15;;;;;;;11.00;8.20;;;;;;;22.10;73.40;101066.47;5027588;28;20045;-67
2023/06/19 08:08:43;;;;;;;12.88;9.73;;;;;;;22.08;74.53;101071.56;5036185;28;20061;-66
2023/06/19 08:11:10;;;;;;;11.30;8.98;;;;;;;22.14;72.76;101080.47;5035065;28;20512;-67
2023/06/19 08:13:38;;;;;;;20.08;9.27;;;;;;;22.20;72.20;101083.84;5035959;28;20042;-68
2023/06/19 08:16:06;;;;;;;13.57;10.10;;;;;;;22.15;73.24;101081.28;5018504;28;20121;-66
2023/06/19 08:18:34;;;;;;;12.82;10.73;;;;;;;22.04;73.76;101078.13;5016654;28;20080;-67
2023/06/19 08:21:02;;;;;;;13.50;9.90;;;;;;;21.92;74.54;101090.78;5016629;28;20042;-67
2023/06/19 08:23:29;;;;;;;15.30;10.35;;;;;;;21.89;75.24;101096.19;5015374;28;20399;-67
2023/06/19 08:25:57;;;;;;;13.90;9.10;;;;;;;21.86;75.05;101091.31;5015169;28;20132;-67
2023/06/19 08:28:25;;;;;;;12.88;9.40;;;;;;;21.91;74.60;101093.88;5014803;28;20057;-67
2023/06/19 08:30:52;;;;;;;16.90;9.52;;;;;;;21.92;73.06;101099.09;5016120;28;20038;-68
2023/06/19 08:33:20;;;;;;;10.57;7.53;;;;;;;21.99;73.27;101098.56;5015151;28;20501;-65
2023/06/19 08:35:48;;;;;;;13.20;9.52;;;;;;;22.06;73.45;101093.28;5025355;28;20045;-67
2023/06/19 08:38:15;;;;;;;15.15;8.18;;;;;;;22.19;73.11;101087.78;5034601;28;20045;-67
2023/06/19 08:40:43;;;;;;;13.27;10.07;;;;;;;22.11;72.24;101090.28;5034791;28;20072;-65
2023/06/19 08:43:11;;;;;;;10.60;7.00;;;;;;;22.15;71.88;101082.06;5035780;28;20068;-66
2023/06/19 08:45:40;;;;;;;12.20;9.25;;;;;;;22.20;72.12;101097.72;4998249;28;20126;-67
2023/06/19 08:48:13;;;;;;;12.48;9.43;;;;;;;22.17;72.25;101103.94;5015865;28;20069;-67
2023/06/19 08:50:41;;;;;;;14.50;10.65;;;;;;;22.10;73.33;101099.78;5031253;28;20046;-66
2023/06/19 08:53:08;;;;;;;15.90;10.40;;;;;;;22.06;73.57;101111.91;5014782;28;20553;-67
2023/06/19 08:55:36;;;;;;;13.98;9.27;;;;;;;22.03;74.15;101113.38;5030470;28;20468;-66
2023/06/19 08:58:04;;;;;;;13.98;9.55;;;;;;;22.06;73.48;101112.69;5017526;28;20048;-66
2023/06/19 09:00:32;;;;;;;14.57;8.80;;;;;;;22.12;73.51;101108.56;5034503;28;20107;-67
2023/06/19 09:03:02;;;;;;;16.00;8.80;;;;;;;22.22;73.06;101123.19;5033931;28;20056;-67
2023/06/19 09:05:49;;;;;;;11.85;9.32;;;;;;;22.27;72.76;101120.22;5015046;28;20050;-67
2023/06/19 09:08:19;;;;;;;10.60;7.43;;;;;;;22.35;72.45;101121.31;5014928;28;20037;-67
2023/06/19 09:10:59;;;;;;;11.05;8.35;;;;;;;22.41;70.64;101120.75;4997326;28;20050;-66
2023/06/19 09:13:29;;;;;;;12.75;8.45;;;;;;;22.47;72.21;101124.13;5033316;28;20512;-67
2023/06/19 09:16:04;;;;;;;12.13;8.25;;;;;;;22.55;71.38;101140.69;5016973;28;20414;-67
2023/06/19 09:18:42;;;;;;;13.60;7.15;;;;;;;22.66;69.97;101137.50;5016996;28;20041;-67
2023/06/19 09:21:24;;;;;;;12.13;8.50;;;;;;;22.72;68.72;101133.34;5033791;28;20048;-67
2023/06/19 09:23:52;;;;;;;13.77;10.38;;;;;;;22.67;69.66;101136.34;5016454;28;20133;-67
2023/06/19 09:26:27;;;;;;;10.85;7.38;;;;;;;22.61;69.48;101132.16;5014227;28;20100;-67
2023/06/19 09:28:55;;;;;;;15.18;9.38;;;;;;;22.59;69.82;101134.47;5015107;28;20050;-67
2023/06/19 09:31:33;;;;;;;16.15;9.45;;;;;;;22.60;70.46;101144.41;5028733;28;20049;-68
2023/06/19 09:34:00;;;;;;;13.65;9.00;;;;;;;22.55;70.61;101140.69;5034813;28;20057;-68
2023/06/19 09:36:30;;;;;;;17.95;8.90;;;;;;;22.58;71.07;101147.53;5029879;28;20072;-67
2023/06/19 09:39:00;;;;;;;17.38;9.57;;;;;;;22.62;70.40;101147.66;5016662;28;20057;-66
2023/06/19 09:41:29;;;;;;;12.57;9.07;;;;;;;22.61;69.72;101151.59;5016488;28;20087;-66
2023/06/19 09:43:59;;;;;;;9.38;6.18;;;;;;;22.65;69.07;101146.97;5028096;28;20119;-67
2023/06/19 09:46:31;;;;;;;11.70;6.28;;;;;;;22.71;68.56;101140.06;5014033;28;20125;-64
2023/06/19 09:49:01;;;;;;;12.60;6.93;;;;;;;22.87;67.03;101149.34;5013625;28;20054;-67
2023/06/19 09:51:35;;;;;;;9.68;5.78;;;;;;;22.93;66.48;101159.09;5013440;28;20050;-67
2023/06/19 09:54:05;;;;;;;9.45;6.47;;;;;;;22.95;67.50;101156.78;5015633;28;20406;-67
2023/06/19 09:56:33;;;;;;;12.57;8.90;;;;;;;22.90;67.19;101165.34;5028057;28;20080;-67
2023/06/19 09:59:01;;;;;;;14.02;9.15;;;;;;;22.82;66.84;101163.47;5033179;28;20081;-66
2023/06/19 10:01:32;;;;;;;12.50;8.73;;;;;;;22.83;66.95;101165.09;5032520;28;20453;-67
2023/06/19 10:04:07;;;;;;;14.13;7.53;;;;;;;22.86;67.10;101158.03;5017114;28;20049;-66
2023/06/19 10:06:48;;;;;;;12.82;7.88;;;;;;;22.92;66.36;101146.38;5030539;28;20448;-67
2023/06/19 10:09:19;;;;;;;11.98;6.43;;;;;;;22.96;65.67;101158.41;5016268;28;20457;-67
2023/06/19 10:11:51;;;;;;;10.38;7.05;;;;;;;23.02;66.87;101153.47;5032489;28;20079;-67
2023/06/19 10:14:20;;;;;;;11.75;7.53;;;;;;;23.06;65.26;101150.81;5034467;28;20053;-67
2023/06/19 10:16:48;;;;;;;13.23;8.05;;;;;;;22.95;64.46;101156.78;5037626;28;20057;-67
2023/06/19 10:19:17;;;;;;;12.77;7.97;;;;;;;22.97;64.64;101160.03;5030809;28;20046;-67
2023/06/19 10:21:52;;;;;;;13.82;8.35;;;;;;;22.99;65.25;101167.25;5032742;28;20049;-68
2023/06/19 10:24:20;;;;;;;16.80;8.30;;;;;;;23.02;65.03;101155.44;5017164;28;20058;-67
2023/06/19 10:27:00;;;;;;;13.20;8.75;;;;;;;23.05;65.58;101163.91;5034192;28;20073;-68
2023/06/19 10:29:38;;;;;;;13.98;9.45;;;;;;;23.06;64.47;101159.16;5032940;28;20435;-68
2023/06/19 10:32:08;;;;;;;14.32;8.45;;;;;;;23.06;63.94;101150.81;5032490;28;20056;-67
2023/06/19 10:34:36;;;;;;;12.32;8.27;;;;;;;23.06;63.58;101159.16;5014655;28;20121;-66
2023/06/19 10:37:04;;;;;;;13.13;8.63;;;;;;;23.07;64.52;101169.94;5031281;28;20060;-67
2023/06/19 10:39:32;;;;;;;13.20;9.45;;;;;;;23.01;63.42;101168.53;5032315;28;20547;-68
2023/06/19 10:42:00;;;;;;;13.15;8.82;;;;;;;23.03;64.96;101171.78;5032625;28;20072;-67
2023/06/19 10:44:28;;;;;;;12.00;7.85;;;;;;;23.07;65.69;101158.81;5032466;28;20050;-68
2023/06/19 10:46:56;;;;;;;14.10;8.82;;;;;;;23.17;64.31;101160.34;5049695;28;20387;-66
2023/06/19 10:49:24;;;;;;;12.68;7.88;;;;;;;23.25;62.60;101164.16;5033462;28;20049;-66
2023/06/19 10:51:58;;;;;;;16.75;8.65;;;;;;;23.30;61.21;101167.50;4679656;28;9999797;-66
2023/06/19 10:54:28;;;;;;;14.35;8.00;;;;;;;23.32;61.36;101168.00;5033429;28;20118;-66
2023/06/19 10:56:57;;;;;;;13.88;8.18;;;;;;;23.37;61.93;101164.97;5016709;28;20059;-67
2023/06/19 10:59:24;;;;;;;13.25;8.38;;;;;;;23.39;62.12;101153.50;5033484;28;20047;-66
2023/06/19 11:01:53;;;;;;;14.65;7.15;;;;;;;23.41;62.00;101158.75;5030024;28;20454;-67
2023/06/19 11:04:23;;;;;;;15.40;8.80;;;;;;;23.43;61.44;101167.53;5032365;28;20050;-68
2023/06/19 11:06:51;;;;;;;12.73;7.90;;;;;;;23.43;59.92;101159.19;5015715;28;20452;-67
2023/06/19 11:09:19;;;;;;;10.85;7.18;;;;;;;23.43;58.93;101164.75;5031346;28;20064;-65
2023/06/19 11:11:48;;;;;;;13.23;8.95;;;;;;;23.41;59.74;101172.66;5031073;28;20066;-66
2023/06/19 11:14:16;;;;;;;17.25;8.73;;;;;;;23.36;60.19;101160.59;5031952;28;20136;-65
2023/06/19 11:16:48;;;;;;;12.88;7.82;;;;;;;23.37;59.95;101156.63;5040995;28;20053;-66
2023/06/19 11:19:21;;;;;;;11.35;6.93;;;;;;;23.39;58.25;101154.31;5042437;28;20635;-67
2023/06/19 11:21:50;;;;;;;12.90;7.88;;;;;;;23.44;57.76;101163.59;5034591;28;20049;-58
2023/06/19 11:24:19;;;;;;;13.98;7.82;;;;;;;23.48;58.80;101159.78;5055676;28;20470;-64
2023/06/19 11:26:51;;;;;;;12.13;8.43;;;;;;;23.55;59.22;101159.19;5043210;28;20486;-66
2023/06/19 11:29:28;;;;;;;18.75;9.18;;;;;;;23.53;58.30;101153.16;5037410;28;20486;-66
2023/06/19 11:32:15;;;;;;;12.63;7.90;;;;;;;23.54;57.52;101154.78;5037978;28;20045;-66